Apus — XUCT7 — position and weather

sailwx.info

Track history (hours):
 
Tides and Currents Weather Stations Pressure Air Temp Water Temp Dewpoint Dewpoint Depression Visibility Wind Speed Wind Dir Waves Ship Positions

Apus

Last reported at 2015-May-27 00:31 UTC. Time now 2015-May-28 04:04 UTC.
Position N 31°02' E 032°19'.

Length 93 m; draft 6.3 m.

Type: Cargo ship. MMSI: 515102000.

Date/timePositionNaut miles runAvg speedWind from/ knotsBaromVisibWave heightAir tempDewpointWater temp
2015-May-27 00:31N 31°02' E 032°19'9 9.2
2015-May-26 23:31N 31°11' E 032°18'7 6.7
2015-May-26 22:25N 31°18' E 032°21'6 6.8
2015-May-26 21:32N 31°24' E 032°19'1111.1
2015-May-26 20:33N 31°33' E 032°12'1413.0
2015-May-26 19:27N 31°42' E 031°60'1213.2
2015-May-26 18:32N 31°51' E 031°49'1313.3
2015-May-26 17:33N 32°00' E 031°39'1413.6
2015-May-26 16:33N 32°10' E 031°28'1413.6
2015-May-26 15:33N 32°20' E 031°17'1413.5
2015-May-26 14:33N 32°31' E 031°07'1413.4
2015-May-26 13:31N 32°41' E 030°56'1913.2
2015-May-26 12:05N 32°55' E 030°41'713.0
2015-May-26 11:33N 33°00' E 030°35'4513.7
2015-May-26 08:14N 33°33' E 029°58'26013.6
2015-May-25 13:07N 36°46' E 026°26'913.5
2015-May-25 12:28N 36°53' E 026°19'3913.1
2015-May-25 09:29N 37°28' E 025°57'24110.9
2015-May-24 11:23N 40°53' E 028°38'1212.5
2015-May-24 10:25N 40°56' E 028°54'1411.0
2015-May-24 09:06N 41°08' E 029°04'16 1.2
2015-May-23 20:20N 41°24' E 029°03'0 0.1
2015-May-23 19:32N 41°24' E 029°03'0 0.1
2015-May-23 18:32N 41°24' E 029°03'1 0.3
2015-May-23 16:32N 41°25' E 029°03'0 0.3
2015-May-23 15:14N 41°25' E 029°03'1 0.5
2015-May-23 13:32N 41°26' E 029°03'0 0.5
2015-May-23 12:32N 41°26' E 029°02'0 0.4
2015-May-23 11:26N 41°26' E 029°02'  
Track history (hours):
 
Tides and Currents Weather Stations Pressure Air Temp Water Temp Dewpoint Dewpoint Depression Visibility Wind Speed Wind Dir Waves Ship Positions

Apus

Last reported at 2015-May-27 00:31 UTC. Time now 2015-May-28 04:04 UTC.
Position N 31°02' E 032°19'.

Length 93 m; draft 6.3 m.

Type: Cargo ship. MMSI: 515102000.

Date/timePositionNaut miles runAvg speedWind from/ knotsBaromVisibWave heightAir tempDewpointWater temp
2015-May-27 00:31N 31°02' E 032°19'9 9.2
2015-May-26 23:31N 31°11' E 032°18'7 6.7
2015-May-26 22:25N 31°18' E 032°21'6 6.8
2015-May-26 21:32N 31°24' E 032°19'1111.1
2015-May-26 20:33N 31°33' E 032°12'1413.0
2015-May-26 19:27N 31°42' E 031°60'1213.2
2015-May-26 18:32N 31°51' E 031°49'1313.3
2015-May-26 17:33N 32°00' E 031°39'1413.6
2015-May-26 16:33N 32°10' E 031°28'1413.6
2015-May-26 15:33N 32°20' E 031°17'1413.5
2015-May-26 14:33N 32°31' E 031°07'1413.4
2015-May-26 13:31N 32°41' E 030°56'1913.2
2015-May-26 12:05N 32°55' E 030°41'713.0
2015-May-26 11:33N 33°00' E 030°35'4513.7
2015-May-26 08:14N 33°33' E 029°58'26013.6
2015-May-25 13:07N 36°46' E 026°26'913.5
2015-May-25 12:28N 36°53' E 026°19'3913.1
2015-May-25 09:29N 37°28' E 025°57'24110.9
2015-May-24 11:23N 40°53' E 028°38'1212.5
2015-May-24 10:25N 40°56' E 028°54'1411.0
2015-May-24 09:06N 41°08' E 029°04'16 1.2
2015-May-23 20:20N 41°24' E 029°03'0 0.1
2015-May-23 19:32N 41°24' E 029°03'0 0.1
2015-May-23 18:32N 41°24' E 029°03'1 0.3
2015-May-23 16:32N 41°25' E 029°03'0 0.3
2015-May-23 15:14N 41°25' E 029°03'1 0.5
2015-May-23 13:32N 41°26' E 029°03'0 0.5
2015-May-23 12:32N 41°26' E 029°02'0 0.4
2015-May-23 11:26N 41°26' E 029°02'  

Dump ship's entire track history